createdAt,value
2018-08-10T00:00:44.856Z,24.90
2018-08-10T00:03:16.337Z,24.90
2018-08-10T00:05:47.173Z,24.80
2018-08-10T00:08:23.101Z,24.60
2018-08-10T00:10:54.403Z,24.70
2018-08-10T00:13:25.715Z,24.70
2018-08-10T00:15:57.386Z,24.70
2018-08-10T00:18:28.818Z,24.60
2018-08-10T00:20:59.792Z,24.50
2018-08-10T00:23:33.053Z,24.40
2018-08-10T00:26:05.080Z,24.10
2018-08-10T00:28:36.054Z,24.20
2018-08-10T00:31:07.345Z,24.20
2018-08-10T00:33:39.717Z,24.20
2018-08-10T00:36:10.538Z,24.10
2018-08-10T00:38:41.433Z,24.00
2018-08-10T00:41:14.638Z,23.90
2018-08-10T00:43:47.613Z,24.00
2018-08-10T00:46:18.881Z,23.90
2018-08-10T00:48:57.708Z,24.00
2018-08-10T00:51:31.994Z,24.00
2018-08-10T00:54:05.641Z,24.10
2018-08-10T00:56:39.673Z,24.10
2018-08-10T00:59:11.823Z,24.10
2018-08-10T01:01:42.941Z,24.10
2018-08-10T01:04:24.498Z,24.10
2018-08-10T01:06:56.347Z,24.00
2018-08-10T01:09:28.132Z,23.90
2018-08-10T01:11:59.684Z,23.90
2018-08-10T01:14:30.400Z,24.10
2018-08-10T01:17:03.479Z,24.10
2018-08-10T01:19:34.910Z,24.10
2018-08-10T01:22:11.068Z,24.10
2018-08-10T01:24:43.285Z,24.00
2018-08-10T01:27:18.605Z,24.00
2018-08-10T01:29:49.634Z,24.10
2018-08-10T01:32:21.195Z,24.10
2018-08-10T01:34:54.564Z,24.20
2018-08-10T01:37:26.276Z,24.20
2018-08-10T01:39:57.633Z,24.30
2018-08-10T01:42:29.481Z,24.40
2018-08-10T01:45:00.639Z,24.40
2018-08-10T01:47:32.240Z,24.50
2018-08-10T01:50:09.344Z,24.60
2018-08-10T01:52:41.092Z,24.60
2018-08-10T01:55:12.490Z,24.60
2018-08-10T01:57:44.614Z,24.50
2018-08-10T02:00:17.262Z,24.50
2018-08-10T02:02:48.170Z,24.60
2018-08-10T02:05:21.549Z,24.30
2018-08-10T02:07:52.313Z,24.40
2018-08-10T02:10:23.554Z,24.10
2018-08-10T02:12:57.880Z,23.90
2018-08-10T02:15:28.463Z,23.80
2018-08-10T02:17:59.146Z,23.70
2018-08-10T02:20:29.998Z,23.60
2018-08-10T02:23:00.778Z,23.80
2018-08-10T02:25:32.199Z,23.80
2018-08-10T02:28:02.976Z,23.90
2018-08-10T02:30:33.747Z,23.90
2018-08-10T02:33:05.368Z,24.00
2018-08-10T02:35:37.556Z,24.10
2018-08-10T02:38:08.527Z,24.10
2018-08-10T02:40:39.448Z,24.10
2018-08-10T02:43:11.678Z,24.00
2018-08-10T02:45:42.964Z,23.80
2018-08-10T02:48:13.796Z,23.90
2018-08-10T02:50:44.568Z,23.90
2018-08-10T02:53:15.580Z,23.80
2018-08-10T02:55:46.638Z,23.80
2018-08-10T02:58:17.592Z,23.60
2018-08-10T03:00:48.432Z,23.40
2018-08-10T03:03:19.638Z,23.20
2018-08-10T03:05:51.372Z,23.00
2018-08-10T03:08:22.512Z,23.00
2018-08-10T03:10:53.522Z,23.00
2018-08-10T03:13:24.808Z,23.00
2018-08-10T03:15:56.160Z,23.10
2018-08-10T03:18:30.388Z,23.00
2018-08-10T03:21:01.425Z,22.90
2018-08-10T03:23:32.648Z,23.10
2018-08-10T03:26:03.670Z,23.30
2018-08-10T03:28:34.596Z,23.30
2018-08-10T03:31:05.373Z,23.20
2018-08-10T03:33:37.845Z,23.00
2018-08-10T03:36:09.335Z,22.70
2018-08-10T03:38:40.882Z,22.60
2018-08-10T03:41:12.082Z,22.60
2018-08-10T03:43:42.967Z,22.80
2018-08-10T03:46:14.331Z,22.80
2018-08-10T03:48:44.938Z,22.90
2018-08-10T03:51:17.458Z,22.90
2018-08-10T03:53:48.449Z,22.90
2018-08-10T03:56:19.695Z,22.90
2018-08-10T03:58:51.647Z,22.90
2018-08-10T04:01:22.654Z,23.00
2018-08-10T04:03:53.484Z,23.10
2018-08-10T04:06:24.752Z,23.20
2018-08-10T04:08:55.701Z,23.00
2018-08-10T04:11:27.461Z,22.90
2018-08-10T04:13:58.324Z,22.80
2018-08-10T04:16:29.797Z,22.90
2018-08-10T04:19:01.470Z,22.90
2018-08-10T04:21:32.565Z,22.80
2018-08-10T04:24:03.462Z,22.70
2018-08-10T04:26:34.610Z,22.90
2018-08-10T04:29:05.291Z,22.80
2018-08-10T04:31:36.129Z,22.90
2018-08-10T04:34:07.071Z,23.10
2018-08-10T04:36:38.393Z,23.10
2018-08-10T04:39:11.042Z,23.20
2018-08-10T04:41:42.210Z,23.10
2018-08-10T04:44:14.745Z,23.00
2018-08-10T04:46:45.678Z,23.10
2018-08-10T04:49:16.127Z,23.10
2018-08-10T04:51:46.958Z,23.00
2018-08-10T04:54:17.874Z,23.10
2018-08-10T04:56:48.791Z,23.10
2018-08-10T04:59:19.900Z,23.00
2018-08-10T05:01:51.481Z,23.00
2018-08-10T05:04:23.584Z,23.00
2018-08-10T05:06:56.221Z,22.80
2018-08-10T05:09:28.720Z,22.80
2018-08-10T05:12:01.332Z,22.90
2018-08-10T05:14:33.830Z,23.00
2018-08-10T05:17:06.742Z,23.10
2018-08-10T05:19:39.794Z,23.20
2018-08-10T05:22:12.571Z,23.20
2018-08-10T05:24:44.750Z,23.40
2018-08-10T05:27:17.793Z,23.30
2018-08-10T05:29:50.247Z,23.20
2018-08-10T05:32:22.843Z,23.00
2018-08-10T05:34:55.241Z,23.00
2018-08-10T05:37:27.654Z,22.90
2018-08-10T05:39:59.967Z,22.90
2018-08-10T05:42:32.666Z,22.90
2018-08-10T05:45:05.972Z,23.00
2018-08-10T05:47:38.689Z,23.10
2018-08-10T05:50:11.025Z,23.10
2018-08-10T05:52:43.602Z,23.10
2018-08-10T05:55:15.992Z,23.10
2018-08-10T05:57:48.272Z,23.10
2018-08-10T06:00:20.381Z,23.00
2018-08-10T06:02:52.619Z,22.90
2018-08-10T06:05:25.484Z,22.60
2018-08-10T06:07:58.217Z,22.60
2018-08-10T06:10:30.531Z,22.50
2018-08-10T06:13:02.754Z,22.60
2018-08-10T06:15:34.931Z,22.50
2018-08-10T06:18:07.313Z,22.30
2018-08-10T06:20:39.481Z,22.40
2018-08-10T06:23:11.805Z,22.60
2018-08-10T06:25:44.021Z,22.60
2018-08-10T06:28:16.480Z,22.60
2018-08-10T06:30:48.550Z,22.50
2018-08-10T06:33:20.745Z,22.50
2018-08-10T06:35:53.061Z,22.60
2018-08-10T06:38:25.382Z,22.60
2018-08-10T06:40:57.570Z,22.70
2018-08-10T06:43:29.694Z,22.80
2018-08-10T06:46:02.199Z,22.80
2018-08-10T06:48:35.421Z,22.70
2018-08-10T06:51:07.839Z,22.70
2018-08-10T06:53:40.247Z,22.70
2018-08-10T06:56:12.679Z,22.80
2018-08-10T06:58:44.861Z,22.70
2018-08-10T07:01:17.217Z,22.80
2018-08-10T07:03:49.784Z,22.80
2018-08-10T07:06:22.015Z,23.00
2018-08-10T07:08:54.296Z,23.10
2018-08-10T07:11:26.745Z,23.00
2018-08-10T07:13:59.032Z,23.10
2018-08-10T07:16:31.130Z,23.10
2018-08-10T07:19:04.983Z,23.10
2018-08-10T07:21:37.464Z,23.20
2018-08-10T07:24:10.046Z,23.00
2018-08-10T07:26:42.202Z,23.00
2018-08-10T07:29:14.522Z,23.00
2018-08-10T07:31:44.919Z,23.00
2018-08-10T07:34:17.245Z,22.90
2018-08-10T07:36:47.724Z,22.90
2018-08-10T07:39:20.313Z,23.00
2018-08-10T07:41:52.573Z,23.00
2018-08-10T07:44:25.093Z,23.00
2018-08-10T07:46:57.646Z,23.00
2018-08-10T07:49:30.272Z,23.00
2018-08-10T07:52:02.727Z,23.10
2018-08-10T07:54:33.506Z,22.90
2018-08-10T07:57:04.031Z,23.00
2018-08-10T07:59:36.489Z,23.00
2018-08-10T08:02:06.963Z,23.00
2018-08-10T08:04:37.662Z,23.00
2018-08-10T08:07:08.265Z,23.20
2018-08-10T08:09:39.640Z,23.10
2018-08-10T08:12:10.123Z,23.00
2018-08-10T08:14:40.585Z,22.90
2018-08-10T08:17:11.031Z,23.00
2018-08-10T08:19:41.678Z,22.90
2018-08-10T08:22:16.377Z,22.70
2018-08-10T08:24:47.073Z,22.70
2018-08-10T08:27:19.504Z,22.80
2018-08-10T08:29:51.089Z,22.90
2018-08-10T08:32:21.662Z,22.70
2018-08-10T08:34:52.402Z,22.60
2018-08-10T08:37:23.069Z,22.40
2018-08-10T08:39:58.136Z,22.40
2018-08-10T08:42:28.700Z,22.40
2018-08-10T08:46:04.414Z,22.40
2018-08-10T08:48:36.809Z,22.50
2018-08-10T08:51:09.488Z,22.50
2018-08-10T08:53:39.934Z,22.60
2018-08-10T08:56:12.809Z,22.70
2018-08-10T08:58:44.255Z,22.50
2018-08-10T09:01:15.453Z,22.30
2018-08-10T09:04:19.757Z,22.00
2018-08-10T09:06:50.333Z,22.00
2018-08-10T09:09:25.539Z,22.40
2018-08-10T09:11:56.143Z,22.30
2018-08-10T09:14:40.591Z,22.50
2018-08-10T09:17:11.875Z,22.70
2018-08-10T09:19:43.296Z,22.80
2018-08-10T09:22:14.379Z,22.80
2018-08-10T09:24:46.736Z,22.70
2018-08-10T09:27:19.169Z,22.80
2018-08-10T09:29:51.375Z,22.70
2018-08-10T09:32:21.924Z,22.60
2018-08-10T09:34:52.552Z,22.60
2018-08-10T09:37:22.931Z,22.70
2018-08-10T09:39:53.496Z,22.70
2018-08-10T09:42:23.994Z,22.70
2018-08-10T09:44:54.473Z,22.60
2018-08-10T09:47:26.811Z,22.70
2018-08-10T09:49:59.362Z,22.90
2018-08-10T09:52:31.697Z,22.80
2018-08-10T09:55:36.906Z,22.90
2018-08-10T09:58:13.212Z,22.80
2018-08-10T10:00:50.173Z,22.70
2018-08-10T10:03:23.584Z,22.80
2018-08-10T10:05:57.453Z,22.70
2018-08-10T10:08:29.817Z,22.60
2018-08-10T10:11:02.119Z,22.70
2018-08-10T10:13:34.438Z,22.60
2018-08-10T10:16:06.589Z,22.60
2018-08-10T10:18:39.233Z,22.50
2018-08-10T10:21:09.811Z,22.50
2018-08-10T10:23:40.507Z,22.50
2018-08-10T10:26:11.244Z,22.50
2018-08-10T10:28:41.725Z,22.40
2018-08-10T10:31:13.984Z,22.40
2018-08-10T10:33:44.454Z,22.30
2018-08-10T10:36:14.825Z,22.30
2018-08-10T10:38:45.524Z,22.30
2018-08-10T10:41:16.000Z,22.30
2018-08-10T10:43:46.383Z,22.40
2018-08-10T10:46:16.879Z,22.40
2018-08-10T10:48:47.780Z,22.40
2018-08-10T10:51:18.830Z,22.50
2018-08-10T10:53:49.904Z,22.50
2018-08-10T10:56:20.480Z,22.50
2018-08-10T10:58:50.960Z,22.50
2018-08-10T11:01:21.492Z,22.40
2018-08-10T11:03:51.917Z,22.40
2018-08-10T11:06:22.318Z,22.40
2018-08-10T11:08:52.865Z,22.40
2018-08-10T11:11:23.379Z,22.50
2018-08-10T11:13:53.863Z,22.50
2018-08-10T11:16:24.416Z,22.60
2018-08-10T11:18:55.099Z,22.60
2018-08-10T11:21:27.146Z,22.70
2018-08-10T11:23:59.397Z,22.60
2018-08-10T11:26:31.788Z,22.50
2018-08-10T11:29:03.943Z,22.50
2018-08-10T11:31:36.036Z,22.40
2018-08-10T11:34:08.493Z,22.30
2018-08-10T11:36:40.783Z,22.30
2018-08-10T11:39:14.478Z,22.10
2018-08-10T11:41:46.392Z,21.80
2018-08-10T11:44:19.788Z,21.80
2018-08-10T11:46:51.789Z,21.70
2018-08-10T11:49:23.893Z,21.70
2018-08-10T11:51:56.537Z,21.50
2018-08-10T11:54:28.921Z,21.40
2018-08-10T11:57:00.904Z,21.30
2018-08-10T11:59:33.178Z,21.30
2018-08-10T12:02:06.472Z,21.20
2018-08-10T12:04:38.841Z,21.10
2018-08-10T12:07:10.881Z,21.10
2018-08-10T12:09:43.283Z,21.00
2018-08-10T12:12:15.214Z,21.00
2018-08-10T12:14:47.564Z,20.90
2018-08-10T12:17:19.734Z,21.00
2018-08-10T12:19:51.957Z,21.00
2018-08-10T12:22:23.877Z,21.00
2018-08-10T12:24:56.007Z,21.00
2018-08-10T12:27:28.063Z,21.00
2018-08-10T12:30:00.785Z,21.00
2018-08-10T12:32:32.921Z,20.90
2018-08-10T12:35:05.441Z,20.90
2018-08-10T12:37:37.777Z,20.90
2018-08-10T12:40:10.104Z,20.90
2018-08-10T12:42:42.500Z,20.90
2018-08-10T12:45:14.926Z,20.90
2018-08-10T12:47:47.333Z,20.90
2018-08-10T12:50:19.582Z,20.90
2018-08-10T12:52:51.958Z,20.90
2018-08-10T12:55:25.119Z,21.00
2018-08-10T12:57:57.251Z,21.00
2018-08-10T13:00:29.437Z,21.00
2018-08-10T13:03:02.104Z,21.10
2018-08-10T13:05:34.316Z,21.10
2018-08-10T13:08:06.528Z,21.10
2018-08-10T13:10:38.908Z,21.10
2018-08-10T13:13:11.275Z,21.10
2018-08-10T13:15:43.514Z,21.20
2018-08-10T13:18:15.781Z,21.20
2018-08-10T13:20:48.294Z,21.30
2018-08-10T13:23:20.188Z,21.30
2018-08-10T13:25:51.228Z,21.20
2018-08-10T13:28:21.721Z,21.20
2018-08-10T13:30:52.284Z,21.30
2018-08-10T13:33:22.963Z,21.30
2018-08-10T13:35:55.453Z,21.50
2018-08-10T13:38:25.858Z,21.60
2018-08-10T13:40:56.472Z,21.60
2018-08-10T13:43:26.870Z,21.70
2018-08-10T13:45:57.398Z,21.70
2018-08-10T13:48:27.950Z,21.70
2018-08-10T13:50:58.792Z,21.80
2018-08-10T13:53:29.471Z,21.70
2018-08-10T13:56:00.329Z,21.80
2018-08-10T13:58:30.994Z,21.90
2018-08-10T14:01:01.386Z,21.90
2018-08-10T14:03:32.178Z,22.00
2018-08-10T14:06:02.627Z,22.10
2018-08-10T14:08:33.218Z,22.10
2018-08-10T14:11:03.740Z,22.30
2018-08-10T14:13:34.130Z,22.30
2018-08-10T14:16:05.152Z,22.40
2018-08-10T14:18:35.647Z,22.40
2018-08-10T14:21:06.280Z,22.50
2018-08-10T14:23:36.958Z,22.40
2018-08-10T14:26:07.492Z,22.50
2018-08-10T14:28:38.173Z,22.50
2018-08-10T14:31:08.768Z,22.50
2018-08-10T14:33:39.483Z,22.40
2018-08-10T14:36:11.656Z,22.50
2018-08-10T14:38:42.944Z,22.50
2018-08-10T14:41:16.468Z,22.50
2018-08-10T14:43:48.982Z,22.50
2018-08-10T14:46:25.365Z,22.70
2018-08-10T14:48:58.263Z,22.90
2018-08-10T14:51:28.860Z,22.90
2018-08-10T14:53:59.788Z,23.00
2018-08-10T14:56:30.887Z,22.90
2018-08-10T14:59:03.199Z,23.00
2018-08-10T15:01:33.807Z,23.30
2018-08-10T15:04:05.628Z,23.40
2018-08-10T15:06:36.378Z,23.50
2018-08-10T15:09:09.363Z,23.60
2018-08-10T15:11:39.992Z,23.40
2018-08-10T15:14:10.861Z,23.60
2018-08-10T15:16:42.942Z,23.60
2018-08-10T15:19:15.547Z,23.40
2018-08-10T15:21:46.858Z,23.20
2018-08-10T15:24:18.926Z,23.50
2018-08-10T15:26:49.965Z,23.70
2018-08-10T15:29:20.479Z,23.80
2018-08-10T15:31:51.790Z,24.10
2018-08-10T15:34:22.578Z,24.30
2018-08-10T15:36:53.360Z,24.30
2018-08-10T15:39:25.045Z,24.50
2018-08-10T15:41:55.513Z,24.70
2018-08-10T15:44:26.123Z,24.90
2018-08-10T15:46:59.452Z,24.80
2018-08-10T15:49:30.869Z,25.00
2018-08-10T15:52:05.315Z,25.10
2018-08-10T15:54:36.009Z,25.20
2018-08-10T15:57:19.831Z,25.30
2018-08-10T15:59:50.284Z,25.30
2018-08-10T16:02:25.465Z,25.40
2018-08-10T16:04:58.695Z,25.60
2018-08-10T16:07:29.238Z,25.50
2018-08-10T16:10:00.850Z,25.70
2018-08-10T16:12:32.951Z,26.00
2018-08-10T16:15:03.619Z,25.80
2018-08-10T16:17:36.527Z,25.90
2018-08-10T16:20:08.024Z,25.70
2018-08-10T16:22:39.553Z,26.00
2018-08-10T16:25:12.403Z,26.20
2018-08-10T16:27:45.114Z,26.10
2018-08-10T16:30:17.594Z,26.00
2018-08-10T16:32:49.819Z,26.50
2018-08-10T16:35:20.420Z,26.70
2018-08-10T16:37:51.903Z,26.90
2018-08-10T16:40:22.672Z,26.90
2018-08-10T16:42:53.190Z,27.30
2018-08-10T16:45:29.660Z,27.60
2018-08-10T16:48:01.909Z,27.70
2018-08-10T16:50:32.667Z,28.30
2018-08-10T16:53:03.370Z,28.70
2018-08-10T16:55:34.953Z,28.90
2018-08-10T16:58:06.320Z,29.00
2018-08-10T17:00:36.837Z,29.20
2018-08-10T17:03:07.530Z,29.20
2018-08-10T17:05:38.594Z,29.30
2018-08-10T17:08:09.172Z,28.90
2018-08-10T17:10:39.799Z,28.60
2018-08-10T17:13:12.080Z,28.50
2018-08-10T17:15:44.042Z,28.30
2018-08-10T17:18:15.652Z,28.20
2018-08-10T17:20:48.646Z,27.90
2018-08-10T17:23:20.875Z,28.00
2018-08-10T17:25:52.402Z,28.30
2018-08-10T17:28:22.769Z,27.80
2018-08-10T17:30:53.384Z,27.80
2018-08-10T17:33:23.942Z,28.00
2018-08-10T17:35:54.654Z,28.00
2018-08-10T17:38:27.383Z,28.20
2018-08-10T17:40:57.910Z,28.40
2018-08-10T17:43:28.531Z,28.40
2018-08-10T17:45:59.430Z,28.20
2018-08-10T17:51:10.490Z,28.50
2018-08-10T17:53:41.645Z,28.70
2018-08-10T17:56:13.889Z,28.80
2018-08-10T17:58:44.619Z,29.10
2018-08-10T18:01:15.501Z,29.20
2018-08-10T18:03:52.031Z,29.20
2018-08-10T18:06:25.043Z,29.50
2018-08-10T18:08:56.543Z,29.30
2018-08-10T18:11:28.533Z,29.50
2018-08-10T18:13:59.114Z,29.10
2018-08-10T18:16:30.904Z,29.10
2018-08-10T18:19:04.923Z,29.20
2018-08-10T18:21:36.177Z,29.40
2018-08-10T18:24:07.074Z,29.60
2018-08-10T18:26:37.597Z,30.10
2018-08-10T18:29:11.943Z,30.10
2018-08-10T18:31:43.950Z,30.00
2018-08-10T18:34:16.382Z,29.50
2018-08-10T18:36:47.702Z,29.20
2018-08-10T18:39:18.570Z,29.90
2018-08-10T18:41:50.286Z,29.80
2018-08-10T18:44:23.582Z,30.50
2018-08-10T18:46:55.931Z,30.40
2018-08-10T18:49:27.755Z,30.50
2018-08-10T18:51:59.106Z,30.80
2018-08-10T18:54:31.803Z,30.40
2018-08-10T18:57:03.659Z,29.80
2018-08-10T18:59:34.944Z,30.50
2018-08-10T19:02:11.224Z,30.90
2018-08-10T19:07:20.677Z,30.70
2018-08-10T19:09:51.140Z,30.70
2018-08-10T19:12:24.221Z,30.90
2018-08-10T19:14:55.118Z,30.70
2018-08-10T19:17:26.824Z,30.80
2018-08-10T19:19:58.193Z,30.90
2018-08-10T19:22:30.199Z,31.30
2018-08-10T19:25:02.639Z,31.20
2018-08-10T19:27:33.428Z,31.50
2018-08-10T19:30:04.444Z,31.40
2018-08-10T19:32:34.887Z,31.60
2018-08-10T19:35:05.749Z,31.20
2018-08-10T19:37:36.524Z,30.80
2018-08-10T19:40:08.663Z,30.80
2018-08-10T19:42:40.439Z,31.10
2018-08-10T19:45:13.802Z,31.20
2018-08-10T19:47:44.790Z,31.80
2018-08-10T19:50:16.482Z,31.50
2018-08-10T19:52:48.020Z,31.30
2018-08-10T19:55:18.616Z,30.70
2018-08-10T19:57:50.298Z,30.70
2018-08-10T20:00:29.358Z,30.50
2018-08-10T20:03:06.684Z,30.30
2018-08-10T20:05:39.399Z,30.20
2018-08-10T20:08:14.398Z,30.60
2018-08-10T20:10:47.875Z,30.50
2018-08-10T20:13:20.405Z,30.10
2018-08-10T20:15:55.330Z,30.30
2018-08-10T20:18:27.342Z,30.80
2018-08-10T20:21:01.471Z,30.90
2018-08-10T20:23:37.691Z,31.10
2018-08-10T20:26:08.393Z,31.20
2018-08-10T20:28:39.380Z,31.10
2018-08-10T20:31:10.512Z,30.60
2018-08-10T20:36:38.661Z,30.40
2018-08-10T20:39:13.880Z,30.40
2018-08-10T20:41:46.653Z,30.00
2018-08-10T20:44:17.281Z,29.90
2018-08-10T20:46:47.908Z,29.80
2018-08-10T20:49:20.139Z,29.70
2018-08-10T20:51:53.091Z,29.70
2018-08-10T20:54:24.792Z,29.30
2018-08-10T20:56:56.292Z,29.30
2018-08-10T20:59:26.929Z,29.30
2018-08-10T21:01:57.533Z,29.20
2018-08-10T21:04:29.770Z,29.20
2018-08-10T21:07:00.912Z,29.20
2018-08-10T21:09:32.037Z,29.10
2018-08-10T21:12:04.682Z,29.10
2018-08-10T21:14:35.391Z,28.90
2018-08-10T21:17:06.645Z,29.00
2018-08-10T21:19:39.953Z,28.90
2018-08-10T21:22:13.289Z,28.80
2018-08-10T21:24:48.091Z,28.90
2018-08-10T21:27:23.937Z,28.80
2018-08-10T21:29:58.569Z,28.90
2018-08-10T21:32:29.908Z,28.80
2018-08-10T21:35:00.604Z,28.80
2018-08-10T21:37:30.860Z,28.80
2018-08-10T21:40:02.818Z,28.70
2018-08-10T21:42:34.422Z,28.90
2018-08-10T21:45:05.189Z,28.90
2018-08-10T21:47:35.725Z,28.80
2018-08-10T21:50:06.715Z,28.90
2018-08-10T21:52:37.252Z,28.80
2018-08-10T21:55:08.905Z,28.70
2018-08-10T21:57:39.495Z,28.60
2018-08-10T22:00:25.627Z,28.60
2018-08-10T22:02:58.554Z,27.80
2018-08-10T22:05:29.026Z,27.50
2018-08-10T22:07:59.767Z,27.00
2018-08-10T22:10:30.323Z,27.20
2018-08-10T22:13:00.968Z,27.30
2018-08-10T22:15:35.955Z,27.70
2018-08-10T22:18:12.552Z,27.80
2018-08-10T22:20:42.990Z,27.70
2018-08-10T22:23:13.918Z,27.60
2018-08-10T22:25:45.604Z,27.60
2018-08-10T22:28:16.342Z,27.60
2018-08-10T22:30:47.145Z,27.20
2018-08-10T22:33:17.697Z,27.10
2018-08-10T22:35:49.572Z,27.20
2018-08-10T22:38:20.062Z,27.20
2018-08-10T22:40:51.569Z,27.20
2018-08-10T22:43:22.542Z,26.90
2018-08-10T22:45:58.241Z,26.70
2018-08-10T22:48:31.912Z,26.50
2018-08-10T22:51:03.429Z,26.30
2018-08-10T22:53:33.990Z,26.50
2018-08-10T22:56:04.993Z,26.50
2018-08-10T22:58:36.345Z,26.30
2018-08-10T23:01:08.110Z,26.30
2018-08-10T23:03:41.615Z,26.30
2018-08-10T23:06:12.589Z,26.30
2018-08-10T23:08:43.125Z,26.20
2018-08-10T23:11:13.971Z,26.20
2018-08-10T23:13:44.699Z,26.10
2018-08-10T23:16:15.433Z,26.00
2018-08-10T23:18:47.662Z,25.90
2018-08-10T23:21:20.934Z,25.90
2018-08-10T23:23:53.403Z,25.70
2018-08-10T23:26:23.966Z,25.60
2018-08-10T23:28:54.715Z,25.50
2018-08-10T23:31:25.094Z,25.40
2018-08-10T23:33:57.035Z,25.20
2018-08-10T23:36:27.799Z,25.20
2018-08-10T23:39:11.481Z,25.10
2018-08-10T23:41:43.433Z,25.10
2018-08-10T23:44:17.018Z,25.30
2018-08-10T23:46:50.066Z,25.30
2018-08-10T23:49:25.145Z,25.20
2018-08-10T23:51:55.984Z,25.00
2018-08-10T23:54:29.412Z,24.90
2018-08-10T23:57:05.407Z,24.90
2018-08-10T23:59:36.552Z,24.80
